Time;durP1;ratioP1;P1;durP2;ratioP2;P2;SDS_P1;SDS_P2;PMS_P1;PMS_P2;Temp;Humidity;BMP_temperature;BMP_pressure;BME280_temperature;BME280_humidity;BME280_pressure;Samples;Min_cycle;Max_cycle;Signal;HPM_P1;HPM_P2
2022/06/23 00:02:23;;;;;;;;;;;;;;;;;;5112416;27;1947;-77
2022/06/23 00:04:50;;;;;;;;;;;;;;;;;;5131344;27;1194;-77
2022/06/23 00:07:15;;;;;;;;;;;;;;;;;;5120944;27;1253;-77
2022/06/23 00:09:44;;;;;;;;;;;;;;;;;;5123638;27;1468;-77
2022/06/23 00:12:12;;;;;;;;;;;;;;;;;;5108903;27;1190;-77
2022/06/23 00:14:38;;;;;;;;;;;;;;;;;;5101899;27;1074;-77
2022/06/23 00:17:36;;;;;;;;;;;;;;;;;;5111784;27;1266;-77
2022/06/23 00:20:08;;;;;;;;;;;;;;;;;;5026748;28;1451;-77
2022/06/23 00:22:34;;;;;;;;;;;;;;;;;;5040191;27;1947;-77
2022/06/23 00:25:02;;;;;;;;;;;;;;;;;;5125215;27;1151;-77
2022/06/23 00:27:33;;;;;;;;;;;;;;;;;;5113677;27;1285;-77
2022/06/23 00:30:00;;;;;;;;;;;;;;;;;;5127437;27;1155;-77
2022/06/23 00:32:26;;;;;;;;;;;;;;;;;;5109149;27;1203;-78
2022/06/23 00:35:00;;;;;;;;;;;;;;;;;;5109280;27;1230;-77
2022/06/23 00:37:27;;;;;;;;;;;;;;;;;;5108382;27;1384;-77
2022/06/23 00:39:55;;;;;;;;;;;;;;;;;;5089197;27;1339;-77
2022/06/23 00:42:25;;;;;;;;;;;;;;;;;;5108850;27;1917;-77
2022/06/23 00:45:09;;;;;;;;;;;;;;;;;;5123269;27;1299;-77
2022/06/23 00:47:40;;;;;;;;;;;;;;;;;;5126792;27;1103;-77
2022/06/23 00:50:18;;;;;;;;;;;;;;;;;;5127734;27;1220;-78
2022/06/23 00:53:01;;;;;;;;;;;;;;;;;;5124928;27;1299;-77
2022/06/23 00:55:38;;;;;;;;;;;;;;;;;;5127431;27;1271;-77
2022/06/23 00:58:26;;;;;;;;;;;;;;;;;;5108387;27;1159;-77
2022/06/23 01:00:55;;;;;;;;;;;;;;;;;;5121370;27;1418;-77
2022/06/23 01:03:27;;;;;;;;;;;;;;;;;;5125509;27;2003;-77
2022/06/23 01:05:59;;;;;;;;;;;;;;;;;;5106621;27;1203;-77
2022/06/23 01:08:31;;;;;;;;;;;;;;;;;;5123382;27;1147;-77
2022/06/23 01:11:10;;;;;;;;;;;;;;;;;;5126809;27;1225;-77
2022/06/23 01:13:38;;;;;;;;;;;;;;;;;;5107197;27;1185;-77
2022/06/23 01:16:09;;;;;;;;;;;;;;;;;;5121176;27;1164;-77
2022/06/23 01:18:38;;;;;;;;;;;;;;;;;;5101335;28;1202;-77
2022/06/23 01:21:08;;;;;;;;;;;;;;;;;;5107293;28;1024;-77
2022/06/23 01:23:36;;;;;;;;;;;;;;;;;;5104893;27;1980;-77
2022/06/23 01:26:07;;;;;;;;;;;;;;;;;;5108551;28;1084;-77
2022/06/23 01:28:37;;;;;;;;;;;;;;;;;;5111837;27;1249;-77
2022/06/23 01:31:03;;;;;;;;;;;;;;;;;;5117486;27;1099;-77
2022/06/23 01:33:34;;;;;;;;;;;;;;;;;;5105310;28;1289;-78
2022/06/23 01:36:19;;;;;;;;;;;;;;;;;;5106304;28;1202;-77
2022/06/23 01:38:47;;;;;;;;;;;;;;;;;;5099887;28;1488;-77
2022/06/23 01:41:36;;;;;;;;;;;;;;;;;;5110901;27;1189;-77
2022/06/23 01:44:14;;;;;;;;;;;;;;;;;;5123719;27;1921;-77
2022/06/23 01:46:40;;;;;;;;;;;;;;;;;;5103767;28;1214;-77
2022/06/23 01:49:20;;;;;;;;;;;;;;;;;;5105749;27;1310;-76
2022/06/23 01:51:45;;;;;;;;;;;;;;;;;;5112764;27;1104;-76
2022/06/23 01:54:20;;;;;;;;;;;;;;;;;;5123309;27;1180;-76
2022/06/23 01:56:54;;;;;;;;;;;;;;;;;;5124469;27;1295;-78
2022/06/23 01:59:19;;;;;;;;;;;;;;;;;;5106839;27;1220;-78
2022/06/23 02:01:52;;;;;;;;;;;;;;;;;;5105242;27;1252;-77
2022/06/23 02:04:25;;;;;;;;;;;;;;;;;;5111574;27;1972;-78
2022/06/23 02:06:57;;;;;;;;;;;;;;;;;;5103916;28;1387;-76
2022/06/23 02:09:22;;;;;;;;;;;;;;;;;;5105760;28;1150;-78
2022/06/23 02:11:50;;;;;;;;;;;;;;;;;;5103740;28;1265;-76
2022/06/23 02:14:27;;;;;;;;;;;;;;;;;;5103825;28;1235;-77
2022/06/23 02:17:02;;;;;;;;;;;;;;;;;;5102603;28;1198;-78
2022/06/23 02:19:38;;;;;;;;;;;;;;;;;;5111007;27;1204;-76
2022/06/23 02:22:13;;;;;;;;;;;;;;;;;;5122266;27;1165;-76
2022/06/23 02:24:46;;;;;;;;;;;;;;;;;;5102781;28;1952;-76
2022/06/23 02:27:18;;;;;;;;;;;;;;;;;;5106723;28;1218;-78
2022/06/23 02:29:54;;;;;;;;;;;;;;;;;;5102497;28;1320;-78
2022/06/23 02:32:40;;;;;;;;;;;;;;;;;;5103274;28;1210;-78
2022/06/23 02:35:25;;;;;;;;;;;;;;;;;;5096617;28;1309;-76
2022/06/23 02:38:05;;;;;;;;;;;;;;;;;;5105441;28;1214;-76
2022/06/23 02:40:40;;;;;;;;;;;;;;;;;;5112973;28;1221;-78
2022/06/23 02:43:11;;;;;;;;;;;;;;;;;;5102981;28;1970;-78
2022/06/23 02:45:37;;;;;;;;;;;;;;;;;;5106814;28;1107;-78
2022/06/23 02:48:03;;;;;;;;;;;;;;;;;;5122546;28;1167;-78
2022/06/23 02:50:40;;;;;;;;;;;;;;;;;;5127440;27;1147;-78
2022/06/23 02:53:28;;;;;;;;;;;;;;;;;;5105598;28;1220;-78
2022/06/23 02:55:53;;;;;;;;;;;;;;;;;;5121302;28;1182;-78
2022/06/23 02:58:22;;;;;;;;;;;;;;;;;;5102435;28;1333;-78
2022/06/23 03:01:09;;;;;;;;;;;;;;;;;;5103908;28;1352;-77
2022/06/23 03:03:53;;;;;;;;;;;;;;;;;;5103183;28;1898;-78
2022/06/23 03:06:24;;;;;;;;;;;;;;;;;;5105177;28;1336;-78
2022/06/23 03:08:57;;;;;;;;;;;;;;;;;;5102554;28;1127;-78
2022/06/23 03:14:18;;;;;;;;;;;;;;;;;;5117338;28;1257;-78
2022/06/23 03:16:45;;;;;;;;;;;;;;;;;;5118525;27;1111;-78
2022/06/23 03:19:17;;;;;;;;;;;;;;;;;;5116894;28;1266;-78
2022/06/23 03:21:48;;;;;;;;;;;;;;;;;;5119544;28;1259;-78
2022/06/23 03:24:25;;;;;;;;;;;;;;;;;;5104036;27;1971;-78
2022/06/23 03:26:56;;;;;;;;;;;;;;;;;;5105582;28;1356;-76
2022/06/23 03:29:28;;;;;;;;;;;;;;;;;;5121230;27;1308;-75
2022/06/23 03:32:02;;;;;;;;;;;;;;;;;;5117546;27;1355;-77
2022/06/23 03:34:44;;;;;;;;;;;;;;;;;;5105481;28;1309;-78
2022/06/23 03:37:16;;;;;;;;;;;;;;;;;;5124530;27;1304;-75
2022/06/23 03:42:43;;;;;;;;;;;;;;;;;;5122702;27;1921;-76
2022/06/23 03:45:11;;;;;;;;;;;;;;;;;;5108566;28;1155;-75
2022/06/23 03:47:55;;;;;;;;;;;;;;;;;;5107193;28;1292;-76
2022/06/23 03:50:23;;;;;;;;;;;;;;;;;;5103537;28;1253;-78
2022/06/23 03:52:53;;;;;;;;;;;;;;;;;;5096703;28;1119;-78
2022/06/23 03:55:25;;;;;;;;;;;;;;;;;;5110145;28;1210;-76
2022/06/23 03:58:01;;;;;;;;;;;;;;;;;;5096381;28;1043;-76
2022/06/23 04:00:35;;;;;;;;;;;;;;;;;;5098195;28;1270;-76
2022/06/23 04:03:19;;;;;;;;;;;;;;;;;;5106499;28;1913;-75
2022/06/23 04:05:56;;;;;;;;;;;;;;;;;;5109108;28;1127;-76
2022/06/23 04:08:22;;;;;;;;;;;;;;;;;;5104946;28;1289;-78
2022/06/23 04:10:49;;;;;;;;;;;;;;;;;;5088998;28;1183;-78
2022/06/23 04:13:26;;;;;;;;;;;;;;;;;;5089630;28;1215;-78
2022/06/23 04:15:53;;;;;;;;;;;;;;;;;;5106799;28;1182;-78
2022/06/23 04:18:21;;;;;;;;;;;;;;;;;;5107202;28;1375;-78
2022/06/23 04:20:57;;;;;;;;;;;;;;;;;;5106358;28;1195;-78
2022/06/23 04:23:30;;;;;;;;;;;;;;;;;;5106384;28;1881;-78
2022/06/23 04:26:06;;;;;;;;;;;;;;;;;;5106166;28;1270;-78
2022/06/23 04:28:35;;;;;;;;;;;;;;;;;;5103653;28;1190;-78
2022/06/23 04:31:02;;;;;;;;;;;;;;;;;;5099459;28;1196;-78
2022/06/23 04:33:28;;;;;;;;;;;;;;;;;;5095878;28;1305;-78
2022/06/23 04:35:58;;;;;;;;;;;;;;;;;;5068142;28;1187;-78
2022/06/23 04:38:27;;;;;;;;;;;;;;;;;;5101903;28;1120;-78
2022/06/23 04:41:15;;;;;;;;;;;;;;;;;;5105867;28;1163;-77
2022/06/23 04:43:45;;;;;;;;;;;;;;;;;;5104276;27;1909;-77
2022/06/23 04:46:28;;;;;;;;;;;;;;;;;;5120586;27;1235;-78
2022/06/23 04:48:56;;;;;;;;;;;;;;;;;;5145226;27;1111;-77
2022/06/23 04:51:30;;;;;;;;;;;;;;;;;;5128160;27;1332;-78
2022/06/23 04:54:01;;;;;;;;;;;;;;;;;;5109909;27;1252;-78
2022/06/23 04:56:49;;;;;;;;;;;;;;;;;;5108957;27;1280;-77
2022/06/23 04:59:14;;;;;;;;;;;;;;;;;;5117124;27;1267;-77
2022/06/23 05:01:41;;;;;;;;;;;;;;;;;;5129969;27;1202;-77
2022/06/23 05:04:14;;;;;;;;;;;;;;;;;;5110100;27;1914;-78
2022/06/23 05:06:44;;;;;;;;;;;;;;;;;;5132560;27;1296;-77
2022/06/23 05:09:17;;;;;;;;;;;;;;;;;;5130139;27;1270;-78
2022/06/23 05:11:52;;;;;;;;;;;;;;;;;;5150934;27;1123;-77
2022/06/23 05:14:24;;;;;;;;;;;;;;;;;;5112244;27;1395;-75
2022/06/23 05:16:53;;;;;;;;;;;;;;;;;;5109915;27;1189;-76
2022/06/23 05:19:23;;;;;;;;;;;;;;;;;;5108187;27;1283;-76
2022/06/23 05:21:52;;;;;;;;;;;;;;;;;;5127934;27;1127;-76
2022/06/23 05:24:20;;;;;;;;;;;;;;;;;;5108722;27;1889;-76
2022/06/23 05:26:45;;;;;;;;;;;;;;;;;;5127752;27;1107;-76
2022/06/23 05:29:17;;;;;;;;;;;;;;;;;;5121121;27;1218;-76
2022/06/23 05:31:43;;;;;;;;;;;;;;;;;;5110345;27;1158;-76
2022/06/23 05:34:13;;;;;;;;;;;;;;;;;;5129038;27;1136;-76
2022/06/23 05:36:48;;;;;;;;;;;;;;;;;;5130555;27;1240;-76
2022/06/23 05:39:22;;;;;;;;;;;;;;;;;;5128001;27;1119;-76
2022/06/23 05:41:51;;;;;;;;;;;;;;;;;;5129752;27;1289;-76
2022/06/23 05:44:20;;;;;;;;;;;;;;;;;;5122085;27;2016;-76
2022/06/23 05:46:47;;;;;;;;;;;;;;;;;;5126847;27;1198;-76
2022/06/23 05:49:33;;;;;;;;;;;;;;;;;;5120359;27;1192;-76
2022/06/23 05:52:01;;;;;;;;;;;;;;;;;;5119410;27;1226;-76
2022/06/23 05:54:43;;;;;;;;;;;;;;;;;;5127345;27;1175;-76
2022/06/23 05:57:17;;;;;;;;;;;;;;;;;;5128017;27;1162;-76
2022/06/23 05:59:48;;;;;;;;;;;;;;;;;;5122588;27;1361;-76
2022/06/23 06:02:20;;;;;;;;;;;;;;;;;;5127474;27;1150;-76
2022/06/23 06:04:49;;;;;;;;;;;;;;;;;;5125986;27;1865;-76
2022/06/23 06:07:17;;;;;;;;;;;;;;;;;;5125410;27;1238;-75
2022/06/23 06:09:43;;;;;;;;;;;;;;;;;;5126937;27;1308;-76
2022/06/23 06:12:15;;;;;;;;;;;;;;;;;;5124298;27;1209;-76
2022/06/23 06:14:52;;;;;;;;;;;;;;;;;;5122132;27;1255;-75
2022/06/23 06:17:20;;;;;;;;;;;;;;;;;;5126017;27;1357;-76
2022/06/23 06:19:46;;;;;;;;;;;;;;;;;;5127239;27;1214;-76
2022/06/23 06:22:18;;;;;;;;;;;;;;;;;;5122438;27;1171;-76
2022/06/23 06:24:47;;;;;;;;;;;;;;;;;;5104735;28;1889;-76
2022/06/23 06:27:12;;;;;;;;;;;;;;;;;;5107114;28;1390;-76
2022/06/23 06:29:39;;;;;;;;;;;;;;;;;;5124891;27;1032;-76
2022/06/23 06:32:23;;;;;;;;;;;;;;;;;;5115124;27;1168;-76
2022/06/23 06:34:54;;;;;;;;;;;;;;;;;;5106931;28;1249;-76
2022/06/23 06:37:23;;;;;;;;;;;;;;;;;;5106894;28;1541;-75
2022/06/23 06:39:52;;;;;;;;;;;;;;;;;;5107924;28;1205;-74
2022/06/23 06:42:32;;;;;;;;;;;;;;;;;;5107943;28;1135;-75
2022/06/23 06:44:59;;;;;;;;;;;;;;;;;;5109282;27;1910;-75
2022/06/23 06:47:27;;;;;;;;;;;;;;;;;;5107050;28;1212;-75
2022/06/23 06:49:55;;;;;;;;;;;;;;;;;;5110098;28;1231;-75
2022/06/23 06:52:22;;;;;;;;;;;;;;;;;;5106636;27;1416;-75
2022/06/23 06:55:04;;;;;;;;;;;;;;;;;;5089439;27;1176;-75
2022/06/23 06:57:42;;;;;;;;;;;;;;;;;;5106039;27;1349;-74
2022/06/23 07:00:32;;;;;;;;;;;;;;;;;;5105497;27;1186;-75
2022/06/23 07:02:59;;;;;;;;;;;;;;;;;;5131311;27;1893;-77
2022/06/23 07:05:34;;;;;;;;;;;;;;;;;;5116618;27;1441;-77
2022/06/23 07:08:17;;;;;;;;;;;;;;;;;;5124890;27;1148;-79
2022/06/23 07:10:45;;;;;;;;;;;;;;;;;;5108454;27;1167;-78
2022/06/23 07:13:14;;;;;;;;;;;;;;;;;;5121937;27;1275;-78
2022/06/23 07:15:59;;;;;;;;;;;;;;;;;;5108515;27;1231;-79
2022/06/23 07:18:27;;;;;;;;;;;;;;;;;;5118316;27;1265;-78
2022/06/23 07:20:58;;;;;;;;;;;;;;;;;;5132653;27;1298;-78
2022/06/23 07:23:24;;;;;;;;;;;;;;;;;;5130643;27;1953;-77
2022/06/23 07:25:52;;;;;;;;;;;;;;;;;;5132789;27;1213;-77
2022/06/23 07:28:22;;;;;;;;;;;;;;;;;;5145253;27;1163;-77
2022/06/23 07:30:53;;;;;;;;;;;;;;;;;;5132454;27;1284;-78
2022/06/23 07:33:24;;;;;;;;;;;;;;;;;;5130117;27;1332;-79
2022/06/23 07:35:53;;;;;;;;;;;;;;;;;;5133230;27;1264;-77
2022/06/23 07:38:18;;;;;;;;;;;;;;;;;;5147975;27;1104;-77
2022/06/23 07:40:51;;;;;;;;;;;;;;;;;;5148863;27;1170;-75
2022/06/23 07:43:36;;;;;;;;;;;;;;;;;;5106833;27;1925;-75
2022/06/23 07:46:02;;;;;;;;;;;;;;;;;;5127789;27;1471;-76
2022/06/23 07:48:29;;;;;;;;;;;;;;;;;;5127323;27;1284;-76
2022/06/23 07:50:56;;;;;;;;;;;;;;;;;;5114817;27;1236;-77
2022/06/23 07:53:24;;;;;;;;;;;;;;;;;;5119551;27;1323;-78
2022/06/23 07:55:49;;;;;;;;;;;;;;;;;;5123426;27;1303;-77
2022/06/23 07:58:18;;;;;;;;;;;;;;;;;;5104295;28;1289;-77
2022/06/23 08:00:44;;;;;;;;;;;;;;;;;;5110130;28;1194;-78
2022/06/23 08:03:14;;;;;;;;;;;;;;;;;;5107907;28;1955;-77
2022/06/23 08:05:50;;;;;;;;;;;;;;;;;;5110349;28;1162;-78
2022/06/23 08:08:18;;;;;;;;;;;;;;;;;;5107371;28;1304;-80
2022/06/23 08:10:44;;;;;;;;;;;;;;;;;;5109219;28;1233;-79
2022/06/23 08:13:18;;;;;;;;;;;;;;;;;;5085724;28;1282;-80
2022/06/23 08:18:35;;;;;;;;;;;;;;;;;;5108500;28;639;-80
2022/06/23 08:21:10;;;;;;;;;;;;;;;;;;5110314;28;1008;-78
2022/06/23 08:23:38;;;;;;;;;;;;;;;;;;5106201;28;1893;-79
2022/06/23 08:26:06;;;;;;;;;;;;;;;;;;5106666;28;1320;-79
2022/06/23 08:28:32;;;;;;;;;;;;;;;;;;5108836;27;1168;-79
2022/06/23 08:30:57;;;;;;;;;;;;;;;;;;5111156;27;1466;-79
2022/06/23 08:33:22;;;;;;;;;;;;;;;;;;5086955;28;1270;-77
2022/06/23 08:35:50;;;;;;;;;;;;;;;;;;5090947;28;1439;-80
2022/06/23 08:38:21;;;;;;;;;;;;;;;;;;5104798;28;1328;-79
2022/06/23 08:40:52;;;;;;;;;;;;;;;;;;5109475;28;869;-79
2022/06/23 08:43:36;;;;;;;;;;;;;;;;;;5100941;28;1902;-80
2022/06/23 08:46:06;;;;;;;;;;;;;;;;;;5107841;28;1150;-79
2022/06/23 08:48:37;;;;;;;;;;;;;;;;;;5107964;28;889;-80
2022/06/23 08:51:21;;;;;;;;;;;;;;;;;;5108445;28;1369;-79
2022/06/23 08:54:02;;;;;;;;;;;;;;;;;;5111534;27;1159;-83
2022/06/23 08:56:33;;;;;;;;;;;;;;;;;;5125740;27;1087;-85
2022/06/23 08:59:07;;;;;;;;;;;;;;;;;;5104185;28;1289;-81
2022/06/23 09:01:36;;;;;;;;;;;;;;;;;;5107570;28;1242;-81
2022/06/23 09:04:20;;;;;;;;;;;;;;;;;;5117718;27;1968;-81
2022/06/23 09:06:48;;;;;;;;;;;;;;;;;;5124476;27;1323;-80
2022/06/23 09:09:20;;;;;;;;;;;;;;;;;;5125114;27;1148;-81
2022/06/23 09:11:48;;;;;;;;;;;;;;;;;;5128946;27;1174;-80
2022/06/23 09:14:16;;;;;;;;;;;;;;;;;;5108067;27;1322;-80
2022/06/23 09:16:47;;;;;;;;;;;;;;;;;;5107353;28;1189;-78
2022/06/23 09:19:30;;;;;;;;;;;;;;;;;;5104998;28;1345;-78
2022/06/23 09:22:14;;;;;;;;;;;;;;;;;;5107122;28;1364;-76
2022/06/23 09:24:52;;;;;;;;;;;;;;;;;;5106298;28;1960;-76
2022/06/23 09:27:23;;;;;;;;;;;;;;;;;;5111223;27;1160;-78
2022/06/23 09:30:03;;;;;;;;;;;;;;;;;;5124106;27;1128;-77
2022/06/23 09:32:34;;;;;;;;;;;;;;;;;;5126651;27;1059;-78
2022/06/23 09:35:12;;;;;;;;;;;;;;;;;;5119879;27;1343;-79
2022/06/23 09:37:52;;;;;;;;;;;;;;;;;;5106966;28;1168;-79
2022/06/23 09:40:32;;;;;;;;;;;;;;;;;;5104164;28;1349;-78
2022/06/23 09:43:16;;;;;;;;;;;;;;;;;;5116095;27;1968;-78
2022/06/23 09:45:46;;;;;;;;;;;;;;;;;;5115233;27;1361;-82
2022/06/23 09:48:17;;;;;;;;;;;;;;;;;;5126800;27;1238;-81
2022/06/23 09:50:45;;;;;;;;;;;;;;;;;;5140125;27;1132;-82
2022/06/23 09:53:10;;;;;;;;;;;;;;;;;;5145688;27;1139;-78
2022/06/23 09:55:45;;;;;;;;;;;;;;;;;;5129354;27;1544;-76
2022/06/23 09:58:22;;;;;;;;;;;;;;;;;;5143633;27;1102;-76
2022/06/23 10:01:10;;;;;;;;;;;;;;;;;;5131023;27;1151;-78
2022/06/23 10:03:42;;;;;;;;;;;;;;;;;;5129383;27;1909;-79
2022/06/23 10:06:23;;;;;;;;;;;;;;;;;;5128630;27;1226;-79
2022/06/23 10:08:54;;;;;;;;;;;;;;;;;;5107884;27;1245;-78
2022/06/23 10:11:29;;;;;;;;;;;;;;;;;;5126588;27;1127;-77
2022/06/23 10:14:00;;;;;;;;;;;;;;;;;;5103631;27;1166;-78
2022/06/23 10:16:38;;;;;;;;;;;;;;;;;;5107669;27;1305;-78
2022/06/23 10:19:14;;;;;;;;;;;;;;;;;;5121022;27;1190;-78
2022/06/23 10:21:42;;;;;;;;;;;;;;;;;;5129722;27;1237;-78
2022/06/23 10:24:07;;;;;;;;;;;;;;;;;;5128362;27;1901;-75
2022/06/23 10:26:45;;;;;;;;;;;;;;;;;;5111446;27;1355;-76
2022/06/23 10:29:23;;;;;;;;;;;;;;;;;;5119659;27;1190;-76
2022/06/23 10:32:12;;;;;;;;;;;;;;;;;;5148820;27;1111;-77
2022/06/23 10:35:06;;;;;;;;;;;;;;;;;;5127018;27;1305;-76
2022/06/23 10:37:50;;;;;;;;;;;;;;;;;;5121971;27;1296;-77
2022/06/23 10:40:19;;;;;;;;;;;;;;;;;;5129472;27;1293;-77
2022/06/23 10:42:50;;;;;;;;;;;;;;;;;;5126691;27;1261;-77
2022/06/23 10:45:36;;;;;;;;;;;;;;;;;;5129905;27;1243;-77
2022/06/23 10:48:23;;;;;;;;;;;;;;;;;;5093825;27;1221;-75
2022/06/23 10:50:57;;;;;;;;;;;;;;;;;;5130913;27;1236;-77
2022/06/23 10:53:23;;;;;;;;;;;;;;;;;;5130614;27;1178;-77
2022/06/23 10:55:55;;;;;;;;;;;;;;;;;;5133953;27;1121;-76
2022/06/23 10:58:35;;;;;;;;;;;;;;;;;;5128139;27;1185;-78
2022/06/23 11:01:30;;;;;;;;;;;;;;;;;;5136132;27;1190;-78
2022/06/23 11:04:17;;;;;;;;;;;;;;;;;;5129742;27;1897;-79
2022/06/23 11:06:45;;;;;;;;;;;;;;;;;;5112741;27;1415;-79
2022/06/23 11:09:29;;;;;;;;;;;;;;;;;;5129423;27;1080;-78
2022/06/23 11:12:01;;;;;;;;;;;;;;;;;;5128989;27;1206;-79
2022/06/23 11:14:45;;;;;;;;;;;;;;;;;;5128297;27;1234;-79
2022/06/23 11:17:16;;;;;;;;;;;;;;;;;;5152138;27;1193;-79
2022/06/23 11:19:54;;;;;;;;;;;;;;;;;;5132297;27;1130;-76
2022/06/23 11:22:37;;;;;;;;;;;;;;;;;;5131384;27;1253;-76
2022/06/23 11:25:08;;;;;;;;;;;;;;;;;;5133501;27;1970;-76
2022/06/23 11:27:52;;;;;;;;;;;;;;;;;;5147874;27;1142;-76
2022/06/23 11:30:24;;;;;;;;;;;;;;;;;;5133245;27;1281;-77
2022/06/23 11:33:19;;;;;;;;;;;;;;;;;;5133347;27;1214;-77
2022/06/23 11:35:55;;;;;;;;;;;;;;;;;;5135425;27;1270;-77
2022/06/23 11:38:20;;;;;;;;;;;;;;;;;;5131955;27;1245;-76
2022/06/23 11:40:55;;;;;;;;;;;;;;;;;;5133356;27;1277;-76
2022/06/23 11:43:36;;;;;;;;;;;;;;;;;;5123887;27;1903;-77
2022/06/23 11:46:13;;;;;;;;;;;;;;;;;;5130007;27;1161;-77
2022/06/23 11:48:41;;;;;;;;;;;;;;;;;;5123238;27;1068;-75
2022/06/23 11:51:27;;;;;;;;;;;;;;;;;;5110442;28;1193;-76
2022/06/23 11:53:52;;;;;;;;;;;;;;;;;;5108733;28;1169;-76
2022/06/23 11:56:27;;;;;;;;;;;;;;;;;;5108608;28;1325;-76
2022/06/23 11:59:16;;;;;;;;;;;;;;;;;;5103839;27;1260;-76
2022/06/23 12:01:41;;;;;;;;;;;;;;;;;;5107354;28;1093;-76
2022/06/23 12:04:12;;;;;;;;;;;;;;;;;;5086291;28;1874;-75
2022/06/23 12:06:56;;;;;;;;;;;;;;;;;;5108340;28;1143;-77
2022/06/23 12:09:24;;;;;;;;;;;;;;;;;;5104366;28;1166;-76
2022/06/23 12:11:49;;;;;;;;;;;;;;;;;;5108375;28;1124;-76
2022/06/23 12:14:17;;;;;;;;;;;;;;;;;;5084233;28;1350;-76
2022/06/23 12:16:48;;;;;;;;;;;;;;;;;;5119668;27;1375;-77
2022/06/23 12:19:15;;;;;;;;;;;;;;;;;;5110855;27;1270;-77
2022/06/23 12:21:47;;;;;;;;;;;;;;;;;;5107661;28;1194;-76
2022/06/23 12:24:17;;;;;;;;;;;;;;;;;;5104648;28;1878;-77
2022/06/23 12:26:50;;;;;;;;;;;;;;;;;;5107913;28;1151;-76
2022/06/23 12:29:35;;;;;;;;;;;;;;;;;;5119961;27;1119;-76
2022/06/23 12:32:07;;;;;;;;;;;;;;;;;;5126817;27;1177;-76
2022/06/23 12:34:38;;;;;;;;;;;;;;;;;;5106354;27;1331;-75
2022/06/23 12:37:06;;;;;;;;;;;;;;;;;;5106828;28;1177;-74
2022/06/23 12:39:47;;;;;;;;;;;;;;;;;;5104599;28;1186;-74
2022/06/23 12:42:33;;;;;;;;;;;;;;;;;;5106587;28;1316;-76
2022/06/23 12:45:18;;;;;;;;;;;;;;;;;;5106314;28;1969;-75
2022/06/23 12:47:52;;;;;;;;;;;;;;;;;;5105718;28;1285;-76
2022/06/23 12:50:20;;;;;;;;;;;;;;;;;;5109220;28;1159;-75
2022/06/23 12:53:04;;;;;;;;;;;;;;;;;;5104622;28;1149;-74
2022/06/23 12:55:29;;;;;;;;;;;;;;;;;;5107985;27;1182;-74
2022/06/23 12:57:55;;;;;;;;;;;;;;;;;;5104903;28;1167;-74
2022/06/23 13:00:42;;;;;;;;;;;;;;;;;;5108086;28;1186;-74
2022/06/23 13:03:34;;;;;;;;;;;;;;;;;;5105431;28;1905;-75
2022/06/23 13:06:19;;;;;;;;;;;;;;;;;;5106952;28;1331;-74
2022/06/23 13:08:58;;;;;;;;;;;;;;;;;;5123010;27;1277;-75
2022/06/23 13:11:29;;;;;;;;;;;;;;;;;;5125079;27;1282;-74
2022/06/23 13:13:57;;;;;;;;;;;;;;;;;;5103184;28;1238;-74
2022/06/23 13:16:40;;;;;;;;;;;;;;;;;;5107779;28;1156;-74
2022/06/23 13:19:27;;;;;;;;;;;;;;;;;;5104881;28;1284;-74
2022/06/23 13:22:01;;;;;;;;;;;;;;;;;;5105562;28;1483;-75
2022/06/23 13:24:27;;;;;;;;;;;;;;;;;;5106427;28;1919;-75
2022/06/23 13:26:58;;;;;;;;;;;;;;;;;;5086958;28;1287;-76
2022/06/23 13:29:27;;;;;;;;;;;;;;;;;;5102094;28;1209;-74
2022/06/23 13:32:08;;;;;;;;;;;;;;;;;;5106409;28;1242;-75
2022/06/23 13:34:39;;;;;;;;;;;;;;;;;;5104703;28;1156;-75
2022/06/23 13:37:21;;;;;;;;;;;;;;;;;;5106027;28;1212;-74
2022/06/23 13:39:50;;;;;;;;;;;;;;;;;;5104178;28;1194;-75
2022/06/23 13:42:25;;;;;;;;;;;;;;;;;;5105747;28;1270;-75
2022/06/23 13:44:57;;;;;;;;;;;;;;;;;;5103318;28;1909;-74
2022/06/23 13:47:33;;;;;;;;;;;;;;;;;;5104620;28;1119;-76
2022/06/23 13:50:02;;;;;;;;;;;;;;;;;;5106020;27;1221;-80
2022/06/23 13:52:45;;;;;;;;;;;;;;;;;;5105965;28;1214;-79
2022/06/23 13:55:19;;;;;;;;;;;;;;;;;;5105863;27;1446;-80
2022/06/23 13:57:50;;;;;;;;;;;;;;;;;;5104690;28;1155;-80
2022/06/23 14:00:20;;;;;;;;;;;;;;;;;;5107442;28;1202;-80
2022/06/23 14:03:06;;;;;;;;;;;;;;;;;;5106089;28;1072;-81
2022/06/23 14:05:40;;;;;;;;;;;;;;;;;;5106943;28;1084;-81
2022/06/23 14:08:15;;;;;;;;;;;;;;;;;;5107660;28;1234;-81
2022/06/23 14:10:41;;;;;;;;;;;;;;;;;;5106865;27;1452;-80
2022/06/23 14:13:16;;;;;;;;;;;;;;;;;;5119848;27;1154;-80
2022/06/23 14:16:00;;;;;;;;;;;;;;;;;;5105806;28;1226;-80
2022/06/23 14:18:34;;;;;;;;;;;;;;;;;;5105500;28;1132;-80
2022/06/23 14:21:18;;;;;;;;;;;;;;;;;;5105838;27;1276;-80
2022/06/23 14:23:47;;;;;;;;;;;;;;;;;;5121013;27;1961;-80
2022/06/23 14:26:35;;;;;;;;;;;;;;;;;;5124408;27;1303;-79
2022/06/23 14:29:04;;;;;;;;;;;;;;;;;;5114342;27;1249;-80
2022/06/23 14:31:48;;;;;;;;;;;;;;;;;;5115779;27;1189;-80
2022/06/23 14:34:24;;;;;;;;;;;;;;;;;;5118240;27;1112;-80
2022/06/23 14:36:53;;;;;;;;;;;;;;;;;;5124023;27;1404;-79
2022/06/23 14:39:18;;;;;;;;;;;;;;;;;;5124925;28;1217;-81
2022/06/23 14:41:56;;;;;;;;;;;;;;;;;;5122982;28;1264;-83
2022/06/23 14:44:21;;;;;;;;;;;;;;;;;;5122834;27;1965;-80
2022/06/23 14:46:51;;;;;;;;;;;;;;;;;;5123948;27;1219;-81
2022/06/23 14:49:22;;;;;;;;;;;;;;;;;;5106462;27;1289;-81
2022/06/23 14:51:48;;;;;;;;;;;;;;;;;;5106650;27;1353;-78
2022/06/23 14:54:31;;;;;;;;;;;;;;;;;;5120094;27;1140;-80
2022/06/23 14:57:05;;;;;;;;;;;;;;;;;;5104863;27;1313;-79
2022/06/23 14:59:42;;;;;;;;;;;;;;;;;;5122534;27;1323;-79
2022/06/23 15:02:08;;;;;;;;;;;;;;;;;;5128077;27;1292;-79
2022/06/23 15:04:41;;;;;;;;;;;;;;;;;;5125089;27;1894;-78
2022/06/23 15:07:10;;;;;;;;;;;;;;;;;;5128756;27;1193;-78
2022/06/23 15:09:41;;;;;;;;;;;;;;;;;;5127156;27;1170;-80
2022/06/23 15:12:06;;;;;;;;;;;;;;;;;;5147367;27;1170;-78
2022/06/23 15:14:41;;;;;;;;;;;;;;;;;;5106445;27;1324;-79
2022/06/23 15:17:09;;;;;;;;;;;;;;;;;;5104861;27;1316;-79
2022/06/23 15:19:39;;;;;;;;;;;;;;;;;;5103340;27;1442;-80
2022/06/23 15:25:07;;;;;;;;;;;;;;;;;;5143598;27;1893;-78
2022/06/23 15:27:42;;;;;;;;;;;;;;;;;;5123812;27;1091;-78
2022/06/23 15:30:10;;;;;;;;;;;;;;;;;;5106036;27;1283;-78
2022/06/23 15:32:36;;;;;;;;;;;;;;;;;;5112257;27;1368;-79
2022/06/23 15:35:14;;;;;;;;;;;;;;;;;;5122138;27;1045;-78
2022/06/23 15:37:45;;;;;;;;;;;;;;;;;;5104673;27;1207;-78
2022/06/23 15:40:19;;;;;;;;;;;;;;;;;;5109348;27;1270;-79
2022/06/23 15:43:00;;;;;;;;;;;;;;;;;;5122039;27;1388;-78
2022/06/23 15:45:54;;;;;;;;;;;;;;;;;;5129895;27;1241;-78
2022/06/23 15:48:22;;;;;;;;;;;;;;;;;;5054079;27;1270;-78
2022/06/23 15:50:57;;;;;;;;;;;;;;;;;;5127835;27;1174;-78
2022/06/23 15:53:25;;;;;;;;;;;;;;;;;;5123434;27;1151;-78
2022/06/23 15:56:07;;;;;;;;;;;;;;;;;;5126103;27;1044;-78
2022/06/23 15:58:42;;;;;;;;;;;;;;;;;;5115271;27;1375;-78
2022/06/23 16:01:46;;;;;;;;;;;;;;;;;;5130525;27;1142;-81
2022/06/23 16:04:14;;;;;;;;;;;;;;;;;;5108469;27;2260;-78
2022/06/23 16:06:48;;;;;;;;;;;;;;;;;;5130327;27;1229;-79
2022/06/23 16:09:27;;;;;;;;;;;;;;;;;;5109369;27;1462;-79
2022/06/23 16:11:54;;;;;;;;;;;;;;;;;;5146049;27;1051;-81
2022/06/23 16:14:22;;;;;;;;;;;;;;;;;;5134898;27;1285;-79
2022/06/23 16:16:49;;;;;;;;;;;;;;;;;;5108076;27;1218;-79
2022/06/23 16:19:17;;;;;;;;;;;;;;;;;;5107527;27;1203;-80
2022/06/23 16:21:44;;;;;;;;;;;;;;;;;;5128457;27;1273;-80
2022/06/23 16:24:25;;;;;;;;;;;;;;;;;;5126351;27;1948;-79
2022/06/23 16:26:55;;;;;;;;;;;;;;;;;;5127308;27;1363;-79
2022/06/23 16:29:23;;;;;;;;;;;;;;;;;;5123831;27;1229;-78
2022/06/23 16:32:06;;;;;;;;;;;;;;;;;;5126889;27;1300;-78
2022/06/23 16:34:47;;;;;;;;;;;;;;;;;;5147433;27;1003;-79
2022/06/23 16:37:17;;;;;;;;;;;;;;;;;;5129384;27;1121;-78
2022/06/23 16:39:45;;;;;;;;;;;;;;;;;;5115326;27;1297;-84
2022/06/23 16:42:44;;;;;;;;;;;;;;;;;;5113850;27;1321;-78
2022/06/23 16:45:12;;;;;;;;;;;;;;;;;;5108892;27;1979;-78
2022/06/23 16:47:47;;;;;;;;;;;;;;;;;;5108037;27;1164;-78
2022/06/23 16:50:42;;;;;;;;;;;;;;;;;;5110937;27;1419;-81
2022/06/23 16:53:14;;;;;;;;;;;;;;;;;;5087728;27;1380;-79
2022/06/23 16:55:46;;;;;;;;;;;;;;;;;;5106351;27;1301;-75
2022/06/23 16:58:34;;;;;;;;;;;;;;;;;;5113962;27;1182;-77
2022/06/23 17:01:18;;;;;;;;;;;;;;;;;;5106758;27;1170;-79
2022/06/23 17:03:45;;;;;;;;;;;;;;;;;;5112100;27;1909;-79
2022/06/23 17:06:14;;;;;;;;;;;;;;;;;;5116287;27;1372;-79
2022/06/23 17:08:51;;;;;;;;;;;;;;;;;;5128100;27;1472;-75
2022/06/23 17:11:34;;;;;;;;;;;;;;;;;;5130155;27;1262;-76
2022/06/23 17:14:08;;;;;;;;;;;;;;;;;;5128945;27;1087;-76
2022/06/23 17:16:37;;;;;;;;;;;;;;;;;;5127845;27;1308;-82
2022/06/23 17:19:05;;;;;;;;;;;;;;;;;;5104935;27;1279;-79
2022/06/23 17:21:34;;;;;;;;;;;;;;;;;;5146971;27;1198;-78
2022/06/23 17:24:20;;;;;;;;;;;;;;;;;;5147976;27;1897;-78
2022/06/23 17:26:56;;;;;;;;;;;;;;;;;;5130168;27;1187;-78
2022/06/23 17:29:30;;;;;;;;;;;;;;;;;;5143546;27;885;-79
2022/06/23 17:32:07;;;;;;;;;;;;;;;;;;5128106;27;1230;-78
2022/06/23 17:34:35;;;;;;;;;;;;;;;;;;5126543;27;1229;-79
2022/06/23 17:37:12;;;;;;;;;;;;;;;;;;5128192;27;1240;-79
2022/06/23 17:45:13;;;;;;;;;;;;;;;;;;5148246;27;1980;-80
2022/06/23 17:47:45;;;;;;;;;;;;;;;;;;5127423;27;1229;-78
2022/06/23 17:50:22;;;;;;;;;;;;;;;;;;5128832;27;1278;-79
2022/06/23 17:52:48;;;;;;;;;;;;;;;;;;5145140;27;1083;-78
2022/06/23 17:55:23;;;;;;;;;;;;;;;;;;5127549;27;1177;-79
2022/06/23 17:58:04;;;;;;;;;;;;;;;;;;5122657;27;1399;-78
2022/06/23 18:00:32;;;;;;;;;;;;;;;;;;5128881;27;1369;-78
2022/06/23 18:03:08;;;;;;;;;;;;;;;;;;5126612;27;1296;-79
2022/06/23 18:05:45;;;;;;;;;;;;;;;;;;5129089;27;1444;-78